Time;durP1;ratioP1;P1;durP2;ratioP2;P2;SDS_P1;SDS_P2;PMS_P1;PMS_P2;Temp;Humidity;BMP_temperature;BMP_pressure;BME280_temperature;BME280_humidity;BME280_pressure;Samples;Min_cycle;Max_cycle;Signal;HPM_P1;HPM_P2
2022/12/29 00:02:07;;;;;;;;;;;;;;;8.95;100;99843.44;;;;-75
2022/12/29 00:07:07;;;;;;;;;;;;;;;8.95;100;99838.89;;;;-74
2022/12/29 00:12:08;;;;;;;;;;;;;;;8.95;100;99824.08;;;;-76
2022/12/29 00:17:07;;;;;;;;;;;;;;;8.96;100;99824.86;;;;-75
2022/12/29 00:37:07;;;;;;;;;;;;;;;8.98;100;99806.73;;;;-80
2022/12/29 00:47:07;;;;;;;;;;;;;;;8.97;100;99784.85;;;;-82
2022/12/29 00:52:08;;;;;;;;;;;;;;;8.96;100;99776.77;;;;-81
2022/12/29 00:54:13;;;;;;;5.2;2.5;;;;;;;;;;;;;-83
2022/12/29 00:57:08;;;;;;;;;;;;;;;8.95;100;99777.49;;;;-82
2022/12/29 01:02:12;;;;;;;;;;;;;;;8.96;100;99758.17;;;;-81
2022/12/29 01:07:07;;;;;;;;;;;;;;;8.96;100;99739.08;;;;-80
2022/12/29 01:12:08;;;;;;;;;;;;;;;8.97;100;99730.41;;;;-81
2022/12/29 01:17:08;;;;;;;;;;;;;;;8.99;100;99733.25;;;;-81
2022/12/29 01:22:07;;;;;;;;;;;;;;;9;100;99723.56;;;;-81
2022/12/29 01:24:13;;;;;;;3.7;1.8;;;;;;;;;;;;;-81
2022/12/29 01:27:07;;;;;;;;;;;;;;;9;100;99730.88;;;;-81
2022/12/29 01:32:07;;;;;;;;;;;;;;;9.02;100;99730.19;;;;-80
2022/12/29 01:37:07;;;;;;;;;;;;;;;9.02;100;99732.72;;;;-81
2022/12/29 01:42:07;;;;;;;;;;;;;;;9.04;100;99728.82;;;;-80
2022/12/29 01:47:07;;;;;;;;;;;;;;;9.04;100;99751.08;;;;-81
2022/12/29 01:52:09;;;;;;;;;;;;;;;9.04;100;99749.73;;;;-82
2022/12/29 01:54:16;;;;;;;4.9;1.6;;;;;;;;;;;;;-82
2022/12/29 01:57:09;;;;;;;;;;;;;;;9.02;100;99767.63;;;;-81
2022/12/29 02:02:08;;;;;;;;;;;;;;;9.01;100;99758.91;;;;-82
2022/12/29 02:07:09;;;;;;;;;;;;;;;8.99;100;99753.63;;;;-80
2022/12/29 02:12:09;;;;;;;;;;;;;;;8.92;100;99743.35;;;;-81
2022/12/29 02:17:11;;;;;;;;;;;;;;;8.86;100;99753.41;;;;-80
2022/12/29 02:22:11;;;;;;;;;;;;;;;8.78;100;99740.09;;;;-80
2022/12/29 02:24:22;;;;;;;4.7;1.4;;;;;;;;;;;;;-79
2022/12/29 02:27:26;;;;;;;;;;;;;;;8.73;100;99736.18;;;;-81
2022/12/29 02:32:11;;;;;;;;;;;;;;;8.74;100;99735.61;;;;-80
2022/12/29 02:37:10;;;;;;;;;;;;;;;8.73;100;99724.33;;;;-80
2022/12/29 02:42:13;;;;;;;;;;;;;;;8.73;100;99728.73;;;;-80
2022/12/29 02:47:13;;;;;;;;;;;;;;;8.71;100;99734.15;;;;-80
2022/12/29 02:52:09;;;;;;;;;;;;;;;8.68;100;99729.21;;;;-80
2022/12/29 02:57:08;;;;;;;;;;;;;;;8.65;100;99733.91;;;;-80
2022/12/29 03:02:22;;;;;;;;;;;;;;;8.63;100;99733.69;;;;-75
2022/12/29 03:07:12;;;;;;;;;;;;;;;8.59;100;99740.17;;;;-75
2022/12/29 03:12:14;;;;;;;;;;;;;;;8.55;100;99760.44;;;;-76
2022/12/29 03:17:11;;;;;;;;;;;;;;;8.5;100;99744.13;;;;-75
2022/12/29 03:24:16;;;;;;;4.3;1;;;;;;;;;;;;;-74
2022/12/29 03:27:09;;;;;;;;;;;;;;;8.37;100;99732.44;;;;-74
2022/12/29 03:32:08;;;;;;;;;;;;;;;8.35;100;99731.56;;;;-74
2022/12/29 03:37:10;;;;;;;;;;;;;;;8.33;100;99735.56;;;;-74
2022/12/29 03:42:09;;;;;;;;;;;;;;;8.3;100;99750.61;;;;-75
2022/12/29 03:47:07;;;;;;;;;;;;;;;8.28;100;99760.78;;;;-74
2022/12/29 03:52:07;;;;;;;;;;;;;;;8.27;100;99765.72;;;;-74
2022/12/29 03:54:16;;;;;;;11.3;1.3;;;;;;;;;;;;;-74
2022/12/29 03:57:07;;;;;;;;;;;;;;;8.26;100;99748.99;;;;-79
2022/12/29 04:02:07;;;;;;;;;;;;;;;8.24;100;99759.33;;;;-79
2022/12/29 04:07:07;;;;;;;;;;;;;;;8.21;100;99769.44;;;;-78
2022/12/29 04:12:08;;;;;;;;;;;;;;;8.18;100;99768.66;;;;-78
2022/12/29 04:17:07;;;;;;;;;;;;;;;8.16;100;99768.31;;;;-80
2022/12/29 04:22:07;;;;;;;;;;;;;;;8.13;100;99762.72;;;;-79
2022/12/29 04:24:16;;;;;;;7.3;1.5;;;;;;;;;;;;;-79
2022/12/29 04:27:07;;;;;;;;;;;;;;;8.11;100;99761.34;;;;-79
2022/12/29 04:32:07;;;;;;;;;;;;;;;8.1;100;99756.94;;;;-73
2022/12/29 04:37:07;;;;;;;;;;;;;;;8.1;100;99760.16;;;;-74
2022/12/29 04:42:07;;;;;;;;;;;;;;;8.12;100;99772.88;;;;-75
2022/12/29 04:47:07;;;;;;;;;;;;;;;8.13;100;99770.17;;;;-75
2022/12/29 04:52:08;;;;;;;;;;;;;;;8.14;100;99753.67;;;;-75
2022/12/29 04:54:17;;;;;;;10.4;1.4;;;;;;;;;;;;;-74
2022/12/29 04:57:07;;;;;;;;;;;;;;;8.12;100;99762.69;;;;-74
2022/12/29 05:02:07;;;;;;;;;;;;;;;8.08;100;99785.26;;;;-75
2022/12/29 05:07:07;;;;;;;;;;;;;;;8.08;100;99776.12;;;;-75
2022/12/29 05:12:07;;;;;;;;;;;;;;;8.08;100;99783.88;;;;-75
2022/12/29 05:17:07;;;;;;;;;;;;;;;8.08;100;99768.59;;;;-74
2022/12/29 05:22:08;;;;;;;;;;;;;;;8.09;100;99802.19;;;;-74
2022/12/29 05:24:18;;;;;;;9.2;1.6;;;;;;;;;;;;;-74
2022/12/29 05:27:07;;;;;;;;;;;;;;;8.06;100;99801.64;;;;-72
2022/12/29 05:32:07;;;;;;;;;;;;;;;8.09;100;99794.95;;;;-73
2022/12/29 05:37:07;;;;;;;;;;;;;;;8.09;100;99809.62;;;;-73
2022/12/29 05:42:07;;;;;;;;;;;;;;;8.13;100;99820.64;;;;-73
2022/12/29 05:47:07;;;;;;;;;;;;;;;8.17;100;99794.22;;;;-73
2022/12/29 05:52:07;;;;;;;;;;;;;;;8.2;100;99807.26;;;;-74
2022/12/29 05:54:18;;;;;;;12.4;1.7;;;;;;;;;;;;;-72
2022/12/29 05:57:07;;;;;;;;;;;;;;;8.18;100;99793.16;;;;-72
2022/12/29 06:02:08;;;;;;;;;;;;;;;8.15;100;99808.23;;;;-73
2022/12/29 06:07:07;;;;;;;;;;;;;;;8.1;100;99824.5;;;;-73
2022/12/29 06:12:07;;;;;;;;;;;;;;;8.13;100;99824.75;;;;-73
2022/12/29 06:17:07;;;;;;;;;;;;;;;8.11;100;99815.42;;;;-73
2022/12/29 06:22:07;;;;;;;;;;;;;;;8.11;100;99821.47;;;;-73
2022/12/29 06:24:18;;;;;;;11.2;1.6;;;;;;;;;;;;;-73
2022/12/29 06:27:07;;;;;;;;;;;;;;;8.1;100;99831.73;;;;-73
2022/12/29 06:32:07;;;;;;;;;;;;;;;8.13;100;99827.81;;;;-73
2022/12/29 06:37:07;;;;;;;;;;;;;;;8.18;100;99844.63;;;;-73
2022/12/29 06:42:07;;;;;;;;;;;;;;;8.2;100;99832.41;;;;-73
2022/12/29 06:47:07;;;;;;;;;;;;;;;8.2;100;99850.44;;;;-73
2022/12/29 06:52:07;;;;;;;;;;;;;;;8.16;100;99832.59;;;;-73
2022/12/29 06:54:19;;;;;;;12.9;1.9;;;;;;;;;;;;;-73
2022/12/29 06:57:07;;;;;;;;;;;;;;;8.12;100;99843.46;;;;-73
2022/12/29 07:02:07;;;;;;;;;;;;;;;8.1;100;99835.36;;;;-73
2022/12/29 07:07:07;;;;;;;;;;;;;;;8.08;100;99832.44;;;;-73
2022/12/29 07:12:07;;;;;;;;;;;;;;;8.03;100;99831.8;;;;-73
2022/12/29 07:17:07;;;;;;;;;;;;;;;8.02;100;99842.19;;;;-73
2022/12/29 07:22:07;;;;;;;;;;;;;;;8.01;100;99837.13;;;;-74
2022/12/29 07:24:19;;;;;;;14.5;1.9;;;;;;;;;;;;;-74
2022/12/29 07:27:07;;;;;;;;;;;;;;;8.02;100;99839.5;;;;-74
2022/12/29 07:32:07;;;;;;;;;;;;;;;8.07;100;99846.77;;;;-74
2022/12/29 07:37:07;;;;;;;;;;;;;;;8.12;100;99847.84;;;;-74
2022/12/29 07:42:07;;;;;;;;;;;;;;;8.13;100;99839.64;;;;-74
2022/12/29 07:47:07;;;;;;;;;;;;;;;8.17;100;99842.36;;;;-74
2022/12/29 07:52:07;;;;;;;;;;;;;;;8.16;100;99854.69;;;;-74
2022/12/29 07:54:22;;;;;;;12.1;2;;;;;;;;;;;;;-74
2022/12/29 07:57:07;;;;;;;;;;;;;;;8.21;100;99848.16;;;;-74
2022/12/29 08:02:07;;;;;;;;;;;;;;;8.21;100;99845.23;;;;-74
2022/12/29 08:07:07;;;;;;;;;;;;;;;8.18;100;99855.67;;;;-74
2022/12/29 08:12:07;;;;;;;;;;;;;;;8.18;100;99857.31;;;;-74
2022/12/29 08:17:09;;;;;;;;;;;;;;;8.18;100;99856.66;;;;-74
2022/12/29 08:22:07;;;;;;;;;;;;;;;8.16;100;99867.68;;;;-74
2022/12/29 08:24:21;;;;;;;13.6;1.8;;;;;;;;;;;;;-73
2022/12/29 08:27:07;;;;;;;;;;;;;;;8.16;100;99872.25;;;;-73
2022/12/29 08:32:07;;;;;;;;;;;;;;;8.11;100;99871.88;;;;-73
2022/12/29 08:37:07;;;;;;;;;;;;;;;8.08;100;99885.53;;;;-74
2022/12/29 08:42:07;;;;;;;;;;;;;;;8.06;100;99891.35;;;;-74
2022/12/29 08:47:07;;;;;;;;;;;;;;;8.04;100;99897.41;;;;-74
2022/12/29 08:52:07;;;;;;;;;;;;;;;8.03;100;99921.18;;;;-75
2022/12/29 08:54:21;;;;;;;9.3;1.7;;;;;;;;;;;;;-75
2022/12/29 08:57:07;;;;;;;;;;;;;;;7.99;100;99902.78;;;;-74
2022/12/29 09:02:07;;;;;;;;;;;;;;;7.98;100;99911.5;;;;-74
2022/12/29 09:07:09;;;;;;;;;;;;;;;7.97;100;99901.31;;;;-75
2022/12/29 09:12:07;;;;;;;;;;;;;;;7.95;100;99920.8;;;;-75
2022/12/29 09:22:07;;;;;;;;;;;;;;;7.99;100;99942.84;;;;-75
2022/12/29 09:24:21;;;;;;;12.1;1.7;;;;;;;;;;;;;-74
2022/12/29 09:27:07;;;;;;;;;;;;;;;8;100;99957.94;;;;-75
2022/12/29 09:32:07;;;;;;;;;;;;;;;8.03;100;99956.19;;;;-74
2022/12/29 09:37:08;;;;;;;;;;;;;;;8.07;100;99960.88;;;;-74
2022/12/29 09:42:11;;;;;;;;;;;;;;;8.13;100;99974.34;;;;-80
2022/12/29 09:47:07;;;;;;;;;;;;;;;8.17;100;99994.03;;;;-78
2022/12/29 09:52:09;;;;;;;;;;;;;;;8.21;100;99992.45;;;;-80
2022/12/29 09:54:31;;;;;;;21;2.8;;;;;;;;;;;;;-79
2022/12/29 09:57:07;;;;;;;;;;;;;;;8.24;100;100009.6;;;;-79
2022/12/29 10:02:15;;;;;;;;;;;;;;;8.27;100;100017.6;;;;-78
2022/12/29 10:07:15;;;;;;;;;;;;;;;8.28;100;100038.6;;;;-79
2022/12/29 10:12:16;;;;;;;;;;;;;;;8.3;100;100045.2;;;;-78
2022/12/29 10:17:15;;;;;;;;;;;;;;;8.33;100;100045.7;;;;-78
2022/12/29 10:22:13;;;;;;;;;;;;;;;8.31;100;100056.5;;;;-78
2022/12/29 10:24:22;;;;;;;19.5;2.8;;;;;;;;;;;;;-79
2022/12/29 10:27:07;;;;;;;;;;;;;;;8.3;100;100072;;;;-78
2022/12/29 10:32:10;;;;;;;;;;;;;;;8.37;100;100071.8;;;;-74
2022/12/29 10:37:12;;;;;;;;;;;;;;;8.38;100;100081.7;;;;-74
2022/12/29 10:42:12;;;;;;;;;;;;;;;8.37;100;100097.1;;;;-74
2022/12/29 10:47:09;;;;;;;;;;;;;;;8.36;100;100107.4;;;;-75
2022/12/29 10:52:07;;;;;;;;;;;;;;;8.33;100;100122.2;;;;-74
2022/12/29 10:54:25;;;;;;;18;2.1;;;;;;;;;;;;;-74
2022/12/29 10:57:11;;;;;;;;;;;;;;;8.33;100;100123.8;;;;-74
2022/12/29 11:02:18;;;;;;;;;;;;;;;8.4;100;100135.5;;;;-73
2022/12/29 11:07:08;;;;;;;;;;;;;;;8.44;100;100148.3;;;;-74
2022/12/29 11:12:21;;;;;;;;;;;;;;;8.49;100;100154.5;;;;-79
2022/12/29 11:17:08;;;;;;;;;;;;;;;8.49;100;100176.2;;;;-79
2022/12/29 11:22:16;;;;;;;;;;;;;;;8.43;100;100168.9;;;;-79
2022/12/29 11:24:28;;;;;;;10.8;1.6;;;;;;;;;;;;;-80
2022/12/29 11:27:17;;;;;;;;;;;;;;;8.41;100;100180.5;;;;-80
2022/12/29 11:32:14;;;;;;;;;;;;;;;8.41;100;100182.1;;;;-79
2022/12/29 11:37:08;;;;;;;;;;;;;;;8.43;100;100201;;;;-80
2022/12/29 11:42:09;;;;;;;;;;;;;;;8.42;100;100196.5;;;;-80
2022/12/29 11:47:07;;;;;;;;;;;;;;;8.4;100;100216.8;;;;-77
2022/12/29 11:52:07;;;;;;;;;;;;;;;8.41;100;100216;;;;-79
2022/12/29 11:54:26;;;;;;;9.4;1.4;;;;;;;;;;;;;-79
2022/12/29 11:57:13;;;;;;;;;;;;;;;8.39;100;100218.3;;;;-78
2022/12/29 12:02:14;;;;;;;;;;;;;;;8.43;100;100224.5;;;;-78
2022/12/29 12:07:12;;;;;;;;;;;;;;;8.5;100;100226.8;;;;-74
2022/12/29 12:12:08;;;;;;;;;;;;;;;8.55;100;100233.4;;;;-74
2022/12/29 12:17:10;;;;;;;;;;;;;;;8.64;100;100232.9;;;;-74
2022/12/29 12:22:12;;;;;;;;;;;;;;;8.79;100;100239;;;;-79
2022/12/29 12:24:38;;;;;;;12.8;1.6;;;;;;;;;;;;;-79
2022/12/29 12:27:14;;;;;;;;;;;;;;;8.87;99.85547;100264.2;;;;-74
2022/12/29 12:32:13;;;;;;;;;;;;;;;8.9;100;100251.8;;;;-74
2022/12/29 12:37:19;;;;;;;;;;;;;;;8.89;99.47656;100250.8;;;;-73
2022/12/29 12:42:16;;;;;;;;;;;;;;;8.86;98.59375;100268.6;;;;-74
2022/12/29 12:47:18;;;;;;;;;;;;;;;8.81;98.6377;100271.4;;;;-74
2022/12/29 12:52:10;;;;;;;;;;;;;;;8.75;98.23145;100272.6;;;;-74
2022/12/29 12:54:36;;;;;;;9.2;1.5;;;;;;;;;;;;;-74
2022/12/29 12:57:14;;;;;;;;;;;;;;;8.69;98.21484;100273;;;;-74
2022/12/29 13:02:17;;;;;;;;;;;;;;;8.64;98.05176;100265;;;;-74
2022/12/29 13:07:11;;;;;;;;;;;;;;;8.6;97.65918;100282.8;;;;-74
2022/12/29 13:12:14;;;;;;;;;;;;;;;8.55;97.81152;100287.6;;;;-74
2022/12/29 13:17:12;;;;;;;;;;;;;;;8.51;98.13184;100291.6;;;;-75
2022/12/29 13:22:12;;;;;;;;;;;;;;;8.48;97.75391;100295.5;;;;-73
2022/12/29 13:24:29;;;;;;;10.5;1.4;;;;;;;;;;;;;-73
2022/12/29 13:27:09;;;;;;;;;;;;;;;8.46;98.33887;100295.7;;;;-73
2022/12/29 13:32:16;;;;;;;;;;;;;;;8.46;98.59082;100298.8;;;;-74
2022/12/29 13:37:08;;;;;;;;;;;;;;;8.44;98.24707;100303.6;;;;-74
2022/12/29 13:42:08;;;;;;;;;;;;;;;8.44;98.56445;100308.8;;;;-73
2022/12/29 13:47:10;;;;;;;;;;;;;;;8.44;98.44434;100307.6;;;;-74
2022/12/29 13:52:11;;;;;;;;;;;;;;;8.45;98.01953;100317.9;;;;-74
2022/12/29 13:54:32;;;;;;;7;1.1;;;;;;;;;;;;;-74
2022/12/29 13:57:11;;;;;;;;;;;;;;;8.44;98.77344;100300.3;;;;-74
2022/12/29 14:02:12;;;;;;;;;;;;;;;8.41;98.82129;100296.2;;;;-74
2022/12/29 14:07:08;;;;;;;;;;;;;;;8.41;98.96387;100295.2;;;;-74
2022/12/29 14:12:17;;;;;;;;;;;;;;;8.4;99.10449;100303.6;;;;-74
2022/12/29 14:17:16;;;;;;;;;;;;;;;8.38;98.68359;100298;;;;-74
2022/12/29 14:22:08;;;;;;;;;;;;;;;8.37;98.85547;100305.3;;;;-74
2022/12/29 14:24:38;;;;;;;8.3;1.4;;;;;;;;;;;;;-74
2022/12/29 14:27:17;;;;;;;;;;;;;;;8.36;98.9209;100310.5;;;;-74
2022/12/29 14:32:17;;;;;;;;;;;;;;;8.36;99.23828;100314.3;;;;-74
2022/12/29 14:37:07;;;;;;;;;;;;;;;8.36;99.21582;100306.6;;;;-74
2022/12/29 14:42:08;;;;;;;;;;;;;;;8.36;99.56445;100310.5;;;;-73
2022/12/29 14:47:09;;;;;;;;;;;;;;;8.34;99.66992;100319.3;;;;-74
2022/12/29 14:52:18;;;;;;;;;;;;;;;8.33;100;100313.7;;;;-73
2022/12/29 14:54:49;;;;;;;13.1;1.9;;;;;;;;;;;;;-74
2022/12/29 14:57:08;;;;;;;;;;;;;;;8.31;100;100317.7;;;;-74
2022/12/29 15:02:16;;;;;;;;;;;;;;;8.29;100;100318.4;;;;-74
2022/12/29 15:07:12;;;;;;;;;;;;;;;8.27;100;100316.4;;;;-74
2022/12/29 15:12:11;;;;;;;;;;;;;;;8.26;100;100319.1;;;;-74
2022/12/29 15:17:13;;;;;;;;;;;;;;;8.25;100;100333.7;;;;-75
2022/12/29 15:22:07;;;;;;;;;;;;;;;8.23;100;100337.5;;;;-74
2022/12/29 15:24:27;;;;;;;12.8;1.9;;;;;;;;;;;;;-74
2022/12/29 15:27:08;;;;;;;;;;;;;;;8.24;100;100354.6;;;;-80
2022/12/29 15:32:17;;;;;;;;;;;;;;;8.24;100;100352.5;;;;-79
2022/12/29 15:37:09;;;;;;;;;;;;;;;8.19;100;100356.3;;;;-78
2022/12/29 15:42:13;;;;;;;;;;;;;;;8.14;100;100356.7;;;;-78
2022/12/29 15:47:10;;;;;;;;;;;;;;;8.08;100;100362;;;;-78
2022/12/29 15:52:09;;;;;;;;;;;;;;;8.03;100;100362.2;;;;-78
2022/12/29 15:54:35;;;;;;;11.6;1.6;;;;;;;;;;;;;-79
2022/12/29 15:57:07;;;;;;;;;;;;;;;7.98;100;100361.4;;;;-78
2022/12/29 16:02:13;;;;;;;;;;;;;;;7.92;100;100376.7;;;;-79
2022/12/29 16:07:08;;;;;;;;;;;;;;;7.87;100;100374.7;;;;-78
2022/12/29 16:12:08;;;;;;;;;;;;;;;7.85;100;100387.4;;;;-78
2022/12/29 16:17:08;;;;;;;;;;;;;;;7.81;100;100393.2;;;;-77
2022/12/29 16:22:13;;;;;;;;;;;;;;;7.77;100;100392.8;;;;-78
2022/12/29 16:24:29;;;;;;;12.4;1.9;;;;;;;;;;;;;-80
2022/12/29 16:27:11;;;;;;;;;;;;;;;7.74;100;100401;;;;-78
2022/12/29 16:32:17;;;;;;;;;;;;;;;7.71;100;100401.4;;;;-78
2022/12/29 16:37:07;;;;;;;;;;;;;;;7.7;100;100400;;;;-79
2022/12/29 16:42:17;;;;;;;;;;;;;;;7.68;100;100400.1;;;;-78
2022/12/29 16:47:20;;;;;;;;;;;;;;;7.64;100;100411.2;;;;-78
2022/12/29 16:52:14;;;;;;;;;;;;;;;7.62;100;100426.1;;;;-78
2022/12/29 16:54:32;;;;;;;13.4;1.8;;;;;;;;;;;;;-77
2022/12/29 16:57:07;;;;;;;;;;;;;;;7.62;100;100428.8;;;;-79
2022/12/29 17:02:09;;;;;;;;;;;;;;;7.6;100;100443;;;;-78
2022/12/29 17:07:08;;;;;;;;;;;;;;;7.57;100;100444.7;;;;-78
2022/12/29 17:12:07;;;;;;;;;;;;;;;7.52;100;100452.7;;;;-77
2022/12/29 17:17:13;;;;;;;;;;;;;;;7.45;100;100458;;;;-77
2022/12/29 17:22:08;;;;;;;;;;;;;;;7.41;100;100468.6;;;;-79
2022/12/29 17:24:29;;;;;;;10.3;2;;;;;;;;;;;;;-78
2022/12/29 17:27:07;;;;;;;;;;;;;;;7.4;100;100476.2;;;;-77
2022/12/29 17:32:08;;;;;;;;;;;;;;;7.4;100;100486.3;;;;-77
2022/12/29 17:37:13;;;;;;;;;;;;;;;7.35;100;100490.1;;;;-77
2022/12/29 17:42:07;;;;;;;;;;;;;;;7.32;100;100500.8;;;;-78
2022/12/29 17:47:07;;;;;;;;;;;;;;;7.27;100;100497.8;;;;-78
2022/12/29 17:52:08;;;;;;;;;;;;;;;7.19;100;100501.9;;;;-79
2022/12/29 17:54:30;;;;;;;15.9;2.7;;;;;;;;;;;;;-78
2022/12/29 17:57:07;;;;;;;;;;;;;;;7.16;100;100517.3;;;;-77
2022/12/29 18:02:13;;;;;;;;;;;;;;;7.11;100;100516.5;;;;-77
2022/12/29 18:07:08;;;;;;;;;;;;;;;7.08;100;100521.3;;;;-79
2022/12/29 18:12:07;;;;;;;;;;;;;;;7.02;100;100526.4;;;;-78
2022/12/29 18:17:12;;;;;;;;;;;;;;;6.98;100;100530.1;;;;-78
2022/12/29 18:22:07;;;;;;;;;;;;;;;6.97;100;100527.7;;;;-78
2022/12/29 18:24:30;;;;;;;12.6;2.1;;;;;;;;;;;;;-78
2022/12/29 18:27:14;;;;;;;;;;;;;;;6.92;100;100539.1;;;;-78
2022/12/29 18:32:07;;;;;;;;;;;;;;;6.91;100;100549.2;;;;-79
2022/12/29 18:37:07;;;;;;;;;;;;;;;6.89;100;100556;;;;-78
2022/12/29 18:42:07;;;;;;;;;;;;;;;6.91;100;100571.3;;;;-78
2022/12/29 18:47:07;;;;;;;;;;;;;;;6.9;100;100575.3;;;;-75
2022/12/29 18:52:09;;;;;;;;;;;;;;;6.88;100;100581.2;;;;-74
2022/12/29 18:54:32;;;;;;;14.5;2.1;;;;;;;;;;;;;-76
2022/12/29 18:57:07;;;;;;;;;;;;;;;6.92;100;100577.5;;;;-74
2022/12/29 19:02:07;;;;;;;;;;;;;;;6.89;100;100578.8;;;;-73
2022/12/29 19:07:07;;;;;;;;;;;;;;;6.88;100;100580.8;;;;-75
2022/12/29 19:12:10;;;;;;;;;;;;;;;6.86;100;100580.8;;;;-75
2022/12/29 19:17:07;;;;;;;;;;;;;;;6.85;100;100578.4;;;;-74
2022/12/29 19:22:07;;;;;;;;;;;;;;;6.86;100;100585.9;;;;-74
2022/12/29 19:24:31;;;;;;;17.2;1.8;;;;;;;;;;;;;-73
2022/12/29 19:27:08;;;;;;;;;;;;;;;6.89;100;100591.4;;;;-74
2022/12/29 19:32:07;;;;;;;;;;;;;;;6.91;100;100593.7;;;;-72
2022/12/29 19:37:07;;;;;;;;;;;;;;;6.92;100;100601.4;;;;-74
2022/12/29 19:42:07;;;;;;;;;;;;;;;6.92;100;100599;;;;-74
2022/12/29 19:47:07;;;;;;;;;;;;;;;6.95;100;100611.9;;;;-74
2022/12/29 19:52:07;;;;;;;;;;;;;;;6.95;100;100618.9;;;;-74
2022/12/29 19:54:32;;;;;;;12.5;2.2;;;;;;;;;;;;;-78
2022/12/29 19:57:07;;;;;;;;;;;;;;;6.96;100;100617.8;;;;-77
2022/12/29 20:02:07;;;;;;;;;;;;;;;6.98;100;100613.9;;;;-78
2022/12/29 20:07:07;;;;;;;;;;;;;;;6.96;100;100617.9;;;;-77
2022/12/29 20:12:07;;;;;;;;;;;;;;;6.94;100;100619.1;;;;-78
2022/12/29 20:17:07;;;;;;;;;;;;;;;6.94;100;100619.2;;;;-79
2022/12/29 20:22:11;;;;;;;;;;;;;;;6.93;100;100626.9;;;;-80
2022/12/29 20:24:32;;;;;;;15.7;2.5;;;;;;;;;;;;;-80
2022/12/29 20:27:08;;;;;;;;;;;;;;;6.94;100;100628.1;;;;-78
2022/12/29 20:32:07;;;;;;;;;;;;;;;6.92;100;100619.7;;;;-77
2022/12/29 20:37:07;;;;;;;;;;;;;;;6.86;100;100620.2;;;;-79
2022/12/29 20:42:07;;;;;;;;;;;;;;;6.83;100;100635.8;;;;-78
2022/12/29 20:47:07;;;;;;;;;;;;;;;6.81;100;100659.2;;;;-78
2022/12/29 20:52:07;;;;;;;;;;;;;;;6.79;100;100673.2;;;;-78
2022/12/29 20:54:35;;;;;;;11.2;1.9;;;;;;;;;;;;;-78
2022/12/29 20:57:07;;;;;;;;;;;;;;;6.77;100;100683.2;;;;-78
2022/12/29 21:02:07;;;;;;;;;;;;;;;6.78;100;100691.9;;;;-78
2022/12/29 21:07:07;;;;;;;;;;;;;;;6.72;100;100687.3;;;;-78
2022/12/29 21:12:07;;;;;;;;;;;;;;;6.73;100;100686.2;;;;-79
2022/12/29 21:17:07;;;;;;;;;;;;;;;6.7;100;100702.6;;;;-78
2022/12/29 21:22:07;;;;;;;;;;;;;;;6.64;100;100703.5;;;;-79
2022/12/29 21:24:33;;;;;;;16.6;2.1;;;;;;;;;;;;;-79
2022/12/29 21:27:09;;;;;;;;;;;;;;;6.58;100;100708.5;;;;-78
2022/12/29 21:32:07;;;;;;;;;;;;;;;6.54;100;100705.8;;;;-77
2022/12/29 21:37:07;;;;;;;;;;;;;;;6.55;100;100711.2;;;;-78
2022/12/29 21:42:07;;;;;;;;;;;;;;;6.49;100;100718.6;;;;-79
2022/12/29 21:47:07;;;;;;;;;;;;;;;6.45;100;100733.2;;;;-79
2022/12/29 21:52:07;;;;;;;;;;;;;;;6.39;100;100745.2;;;;-79
2022/12/29 21:57:07;;;;;;;;;;;;;;;6.41;100;100749.8;;;;-79
2022/12/29 22:17:07;;;;;;;;;;;;;;;6.54;100;100790.8;;;;-79
2022/12/29 22:22:07;;;;;;;;;;;;;;;6.54;100;100803.3;;;;-79
2022/12/29 22:24:34;;;;;;;9.6;2;;;;;;;;;;;;;-78
2022/12/29 22:27:07;;;;;;;;;;;;;;;6.54;100;100805.5;;;;-78
2022/12/29 22:32:07;;;;;;;;;;;;;;;6.6;100;100814.3;;;;-78
2022/12/29 22:37:07;;;;;;;;;;;;;;;6.64;100;100816.1;;;;-78
2022/12/29 22:42:07;;;;;;;;;;;;;;;6.62;100;100826;;;;-78
2022/12/29 22:47:08;;;;;;;;;;;;;;;6.57;100;100825.5;;;;-78
2022/12/29 22:52:07;;;;;;;;;;;;;;;6.56;100;100828.2;;;;-78
2022/12/29 22:54:34;;;;;;;8.5;1.7;;;;;;;;;;;;;-79
2022/12/29 22:57:07;;;;;;;;;;;;;;;6.58;100;100838.9;;;;-78
2022/12/29 23:02:07;;;;;;;;;;;;;;;6.58;100;100853.1;;;;-78
2022/12/29 23:07:10;;;;;;;;;;;;;;;6.61;100;100853.6;;;;-79
2022/12/29 23:12:07;;;;;;;;;;;;;;;6.67;100;100857.3;;;;-77
2022/12/29 23:17:07;;;;;;;;;;;;;;;6.66;100;100865.8;;;;-77
2022/12/29 23:22:07;;;;;;;;;;;;;;;6.62;100;100867.7;;;;-78
2022/12/29 23:24:34;;;;;;;13.5;1.7;;;;;;;;;;;;;-79
2022/12/29 23:27:08;;;;;;;;;;;;;;;6.56;100;100865.6;;;;-80
2022/12/29 23:32:07;;;;;;;;;;;;;;;6.57;100;100872.7;;;;-78
2022/12/29 23:37:07;;;;;;;;;;;;;;;6.61;100;100881.1;;;;-78
2022/12/29 23:42:07;;;;;;;;;;;;;;;6.64;100;100883;;;;-78
2022/12/29 23:47:06;;;;;;;;;;;;;;;6.68;100;100884.6;;;;-78
2022/12/29 23:52:07;;;;;;;;;;;;;;;6.72;100;100894.7;;;;-78
2022/12/29 23:54:35;;;;;;;14;1.6;;;;;;;;;;;;;-79
2022/12/29 23:57:07;;;;;;;;;;;;;;;6.76;100;100888.3;;;;-78
